LFBH 181530Z AUTO 29022KT CAVOK 21/17 Q1017 BECMG 29016G28KT

ElémentsDécodage
LFBH Station météo située sur l'aérodrome de LA-ROCHELLE Ile-de-Re
181530Z émis le 18 du mois à 15h30 UTC
AUTO Bulletin édité par un automate
29022KT vent du 290°, 22 noeuds
CAVOK Ceiling And Visibility OK
- Visibilité de 10 Km ou plus
- Pas de nuage au-dessous de 1500m ou au-dessous de l'altitude minimale du secteur la plus élevée (si>1500m) et absence de CB
- pas de temps présent significatif
21/17 température 21°C, point de rosée 17°C
 soit une humidité relative de 78%
Q1017 la pression au niveau de la mer (QNH) est de 1017 hPa
BECMG fluctuation du temps prévue
29016G28KT vent du 290°, moyenne: 16 noeuds, avec rafales à 28 noeuds